Time;durP1;ratioP1;P1;durP2;ratioP2;P2;SDS_P1;SDS_P2;PMS_P1;PMS_P2;Temp;Humidity;BMP_temperature;BMP_pressure;BME280_temperature;BME280_humidity;BME280_pressure;Samples;Min_cycle;Max_cycle;Signal;HPM_P1;HPM_P2
2022/09/21 00:01:16;;;;;;;8.40;3.20;;;7.00;99.90;;;;;;5051439;28;20412;-75
2022/09/21 00:03:42;;;;;;;13.73;3.00;;;7.10;99.90;;;;;;5051105;28;20514;-75
2022/09/21 00:06:18;;;;;;;12.43;3.47;;;7.10;99.90;;;;;;5051295;28;20451;-75
2022/09/21 00:08:45;;;;;;;7.03;3.70;;;7.20;99.90;;;;;;5033054;28;20805;-75
2022/09/21 00:11:23;;;;;;;9.27;4.03;;;7.30;99.90;;;;;;5050952;28;20410;-75
2022/09/21 00:13:53;;;;;;;9.40;3.50;;;7.30;99.90;;;;;;5050947;28;21044;-75
2022/09/21 00:16:18;;;;;;;5.10;3.20;;;7.30;99.90;;;;;;5051025;28;20766;-76
2022/09/21 00:18:44;;;;;;;4.13;3.60;;;7.40;99.90;;;;;;5051213;28;20466;-75
2022/09/21 00:21:13;;;;;;;8.80;3.27;;;7.40;99.90;;;;;;5051297;28;20182;-75
2022/09/21 00:23:39;;;;;;;14.43;3.97;;;7.40;99.90;;;;;;5050528;28;20204;-75
2022/09/21 00:26:10;;;;;;;5.37;3.20;;;7.50;99.90;;;;;;5051290;28;20442;-75
2022/09/21 00:28:36;;;;;;;7.20;2.97;;;7.50;99.90;;;;;;5051262;28;20970;-75
2022/09/21 00:31:07;;;;;;;10.13;3.83;;;7.60;99.90;;;;;;5051311;28;20997;-75
2022/09/21 00:33:33;;;;;;;7.73;3.27;;;7.60;99.90;;;;;;5051286;28;20442;-75
2022/09/21 00:36:07;;;;;;;7.50;3.63;;;7.70;99.90;;;;;;5049652;28;20434;-75
2022/09/21 00:38:33;;;;;;;4.70;3.10;;;7.70;99.90;;;;;;5052692;28;20470;-75
2022/09/21 00:40:59;;;;;;;9.67;3.13;;;7.70;99.90;;;;;;5050846;28;20522;-75
2022/09/21 00:43:25;;;;;;;8.13;3.87;;;7.70;99.90;;;;;;5050444;28;20510;-75
2022/09/21 00:46:00;;;;;;;6.93;3.80;;;7.70;99.90;;;;;;5050637;28;20934;-75
2022/09/21 00:48:26;;;;;;;9.23;3.73;;;7.60;99.90;;;;;;5050351;28;20415;-75
2022/09/21 00:50:55;;;;;;;9.23;4.17;;;7.50;99.90;;;;;;5048761;28;20430;-75
2022/09/21 00:53:21;;;;;;;5.77;3.40;;;7.40;99.90;;;;;;5049966;28;20523;-76
2022/09/21 00:55:54;;;;;;;4.93;3.60;;;7.30;99.90;;;;;;5050177;28;20531;-75
2022/09/21 00:58:26;;;;;;;5.60;3.60;;;7.20;99.90;;;;;;5048453;28;20208;-75
2022/09/21 01:00:52;;;;;;;4.53;4.10;;;7.20;99.90;;;;;;5048463;28;20430;-75
2022/09/21 01:03:18;;;;;;;9.80;3.27;;;7.10;99.90;;;;;;5049687;28;20531;-75
2022/09/21 01:05:43;;;;;;;4.67;3.47;;;7.00;99.90;;;;;;5048626;28;20418;-75
2022/09/21 01:08:12;;;;;;;8.23;4.63;;;6.90;99.90;;;;;;5049869;28;20181;-75
2022/09/21 01:11:03;;;;;;;5.00;3.83;;;6.90;99.90;;;;;;5049885;28;20175;-75
2022/09/21 01:14:11;;;;;;;7.63;4.10;;;6.80;99.90;;;;;;5049797;28;20443;-75
2022/09/21 01:16:47;;;;;;;12.03;4.27;;;6.80;99.90;;;;;;5038522;28;20442;-76
2022/09/21 01:19:48;;;;;;;6.90;3.77;;;6.60;99.90;;;;;;5047922;28;20474;-75
2022/09/21 01:22:19;;;;;;;7.00;4.13;;;6.40;99.90;;;;;;5049663;28;20445;-75
2022/09/21 01:25:06;;;;;;;19.00;3.70;;;6.40;99.90;;;;;;5048191;28;20501;-76
2022/09/21 01:27:45;;;;;;;7.00;4.10;;;6.30;99.90;;;;;;5049725;28;20787;-75
2022/09/21 01:30:19;;;;;;;7.80;4.97;;;6.30;99.90;;;;;;5049369;28;20431;-75
2022/09/21 01:32:55;;;;;;;5.80;4.30;;;6.00;99.90;;;;;;5049276;28;20436;-75
2022/09/21 01:35:27;;;;;;;8.43;4.30;;;5.80;99.90;;;;;;5048470;28;20500;-75
2022/09/21 01:37:58;;;;;;;8.00;4.50;;;5.70;99.90;;;;;;5047956;28;20441;-76
2022/09/21 01:40:31;;;;;;;9.53;4.53;;;5.60;99.90;;;;;;5049266;28;20415;-76
2022/09/21 01:42:57;;;;;;;8.43;4.20;;;5.70;99.90;;;;;;5049442;28;20430;-76
2022/09/21 01:45:34;;;;;;;6.70;4.67;;;5.80;99.90;;;;;;5049277;28;20422;-75
2022/09/21 01:48:02;;;;;;;10.27;3.83;;;5.80;99.90;;;;;;5049142;28;20469;-76
2022/09/21 01:50:34;;;;;;;10.63;4.00;;;5.60;99.90;;;;;;5049152;28;20939;-76
2022/09/21 01:53:34;;;;;;;8.70;3.70;;;5.70;99.90;;;;;;5049093;28;20780;-76
2022/09/21 01:56:14;;;;;;;6.57;3.60;;;5.70;99.90;;;;;;5041070;28;20537;-76
2022/09/21 01:59:18;;;;;;;4.20;3.20;;;5.70;99.90;;;;;;5047537;28;20467;-75
2022/09/21 02:01:54;;;;;;;16.67;4.27;;;5.70;99.90;;;;;;5048868;28;20410;-76
2022/09/21 02:04:20;;;;;;;4.60;3.40;;;5.60;99.90;;;;;;5049179;28;20413;-76
2022/09/21 02:06:48;;;;;;;10.00;4.37;;;5.50;99.90;;;;;;5048990;28;20471;-75
2022/09/21 02:09:16;;;;;;;9.20;4.47;;;5.40;99.90;;;;;;5049109;28;20568;-75
2022/09/21 02:11:42;;;;;;;16.00;3.57;;;5.40;99.90;;;;;;5048920;28;20414;-76
2022/09/21 02:14:15;;;;;;;9.57;4.03;;;5.40;99.90;;;;;;5048845;28;21548;-75
2022/09/21 02:17:04;;;;;;;5.93;3.67;;;5.50;99.90;;;;;;5048793;28;20998;-76
2022/09/21 02:19:39;;;;;;;7.40;3.47;;;5.60;99.90;;;;;;5048784;28;20454;-75
2022/09/21 02:22:08;;;;;;;8.10;3.30;;;5.60;99.90;;;;;;5048483;28;20927;-75
2022/09/21 02:24:46;;;;;;;3.93;3.27;;;5.50;99.90;;;;;;5047459;28;20418;-75
2022/09/21 02:27:30;;;;;;;10.20;2.93;;;5.50;99.90;;;;;;5048665;28;20406;-75
2022/09/21 02:30:13;;;;;;;3.87;2.60;;;5.60;99.90;;;;;;5048829;28;20468;-76
2022/09/21 02:32:41;;;;;;;4.50;3.50;;;5.60;99.90;;;;;;5048623;28;20442;-75
2022/09/21 02:35:29;;;;;;;4.00;3.10;;;5.60;99.90;;;;;;5048308;28;20422;-75
2022/09/21 02:38:21;;;;;;;5.00;3.20;;;5.70;99.90;;;;;;5048607;28;20418;-75
2022/09/21 02:40:52;;;;;;;4.70;3.40;;;5.70;99.90;;;;;;5048637;28;20419;-76
2022/09/21 02:43:28;;;;;;;4.03;3.20;;;5.70;99.90;;;;;;5048570;28;20441;-76
2022/09/21 02:45:59;;;;;;;4.20;2.90;;;5.70;99.90;;;;;;5048452;28;20469;-75
2022/09/21 02:48:31;;;;;;;3.03;2.83;;;5.70;99.90;;;;;;5052351;28;20452;-76
2022/09/21 02:51:05;;;;;;;8.63;2.97;;;5.80;99.90;;;;;;5052786;28;20717;-75
2022/09/21 02:53:35;;;;;;;6.43;2.80;;;5.70;99.90;;;;;;5051176;28;20442;-75
2022/09/21 02:56:05;;;;;;;8.60;2.90;;;5.50;99.90;;;;;;5052578;28;20434;-75
2022/09/21 02:58:39;;;;;;;8.53;2.80;;;5.40;99.90;;;;;;5051348;28;20839;-75
2022/09/21 03:01:09;;;;;;;3.40;2.40;;;5.40;99.90;;;;;;5051748;28;20545;-75
2022/09/21 03:03:34;;;;;;;5.60;2.87;;;5.40;99.90;;;;;;5052943;28;20525;-75
2022/09/21 03:06:01;;;;;;;4.23;2.73;;;5.40;99.90;;;;;;5053064;28;20509;-75
2022/09/21 03:08:27;;;;;;;10.77;3.73;;;5.50;99.90;;;;;;5053083;28;20180;-75
2022/09/21 03:10:53;;;;;;;8.60;2.40;;;5.50;99.90;;;;;;5052960;28;20444;-75
2022/09/21 03:13:19;;;;;;;8.40;2.40;;;5.50;99.90;;;;;;5051700;28;20537;-75
2022/09/21 03:15:45;;;;;;;4.73;2.90;;;5.50;99.90;;;;;;5053209;28;20517;-75
2022/09/21 03:18:12;;;;;;;2.67;2.40;;;5.50;99.90;;;;;;5053242;28;20468;-75
2022/09/21 03:20:39;;;;;;;6.37;2.60;;;5.50;99.90;;;;;;5053908;28;20504;-75
2022/09/21 03:23:05;;;;;;;6.60;2.63;;;5.50;99.90;;;;;;5052729;28;20803;-75
2022/09/21 03:25:32;;;;;;;2.43;2.23;;;5.40;99.90;;;;;;5052652;28;21254;-75
2022/09/21 03:27:58;;;;;;;4.10;2.50;;;5.40;99.90;;;;;;5052579;28;20414;-76
2022/09/21 03:30:25;;;;;;;3.10;2.70;;;5.40;99.90;;;;;;5052396;28;20406;-75
2022/09/21 03:32:52;;;;;;;6.67;2.40;;;5.40;99.90;;;;;;5052303;28;20794;-75
2022/09/21 03:35:18;;;;;;;3.30;3.00;;;5.30;99.90;;;;;;5051163;28;20929;-75
2022/09/21 03:37:47;;;;;;;2.33;1.97;;;5.30;99.90;;;;;;5051046;28;20429;-75
2022/09/21 03:40:13;;;;;;;5.43;2.57;;;5.30;99.90;;;;;;5051930;28;20840;-76
2022/09/21 03:42:40;;;;;;;4.10;2.50;;;5.30;99.90;;;;;;5051817;28;20809;-75
2022/09/21 03:45:08;;;;;;;5.50;4.90;;;5.30;99.90;;;;;;5051686;28;20409;-75
2022/09/21 03:47:33;;;;;;;9.43;7.43;;;5.20;99.90;;;;;;5051754;28;20403;-75
2022/09/21 03:49:59;;;;;;;7.30;5.70;;;5.20;99.90;;;;;;5051621;28;20784;-75
2022/09/21 03:52:25;;;;;;;7.80;4.40;;;5.30;99.90;;;;;;5051589;28;20430;-75
2022/09/21 03:54:51;;;;;;;3.90;3.57;;;5.30;99.90;;;;;;5051686;28;20181;-75
2022/09/21 03:57:16;;;;;;;6.17;4.00;;;5.30;99.90;;;;;;5049828;28;20457;-75
2022/09/21 03:59:42;;;;;;;7.33;3.83;;;5.30;99.90;;;;;;5048971;28;20307;-76
2022/09/21 04:02:08;;;;;;;14.83;3.10;;;5.20;99.90;;;;;;5051229;28;20210;-75
2022/09/21 04:04:33;;;;;;;6.37;4.10;;;5.20;99.90;;;;;;5049836;28;20369;-75
2022/09/21 04:06:59;;;;;;;4.90;3.37;;;5.20;99.90;;;;;;5051130;28;20180;-75
2022/09/21 04:09:25;;;;;;;6.50;2.93;;;5.20;99.90;;;;;;5051653;28;20714;-75
2022/09/21 04:11:52;;;;;;;5.80;3.10;;;5.10;99.90;;;;;;5050966;28;20195;-75
2022/09/21 04:14:18;;;;;;;5.37;3.30;;;5.10;99.90;;;;;;5050979;28;20916;-75
2022/09/21 04:16:44;;;;;;;7.43;3.17;;;5.10;99.90;;;;;;5050952;28;20429;-75
2022/09/21 04:19:10;;;;;;;8.40;3.40;;;5.10;99.90;;;;;;5051113;28;20199;-75
2022/09/21 04:21:35;;;;;;;3.47;2.77;;;5.10;99.90;;;;;;5051150;28;20203;-75
2022/09/21 04:24:02;;;;;;;5.20;3.50;;;5.10;99.90;;;;;;5053966;28;20438;-75
2022/09/21 04:26:30;;;;;;;11.83;3.70;;;5.00;99.90;;;;;;5054446;28;20653;-75
2022/09/21 04:28:56;;;;;;;9.03;2.80;;;5.00;99.90;;;;;;5053542;28;20446;-75
2022/09/21 04:31:24;;;;;;;5.77;3.90;;;5.00;99.90;;;;;;5052147;28;20462;-75
2022/09/21 04:33:51;;;;;;;9.07;3.60;;;4.90;99.90;;;;;;5052724;28;20446;-74
2022/09/21 04:36:18;;;;;;;7.60;6.00;;;4.90;99.90;;;;;;5052050;28;20930;-74
2022/09/21 04:38:43;;;;;;;6.50;4.60;;;4.90;99.90;;;;;;5052022;28;20457;-75
2022/09/21 04:41:09;;;;;;;6.37;4.27;;;4.80;99.90;;;;;;5050723;28;20487;-75
2022/09/21 04:43:35;;;;;;;13.07;5.53;;;4.70;99.90;;;;;;5051321;28;20199;-75
2022/09/21 04:46:05;;;;;;;6.23;3.97;;;4.80;99.90;;;;;;5051134;28;20433;-75
2022/09/21 04:48:31;;;;;;;6.93;3.93;;;4.80;99.90;;;;;;5051241;28;20920;-75
2022/09/21 04:50:57;;;;;;;7.00;4.83;;;4.90;99.90;;;;;;5050973;28;20419;-75
2022/09/21 04:53:22;;;;;;;7.40;5.13;;;4.90;99.90;;;;;;5049236;28;20214;-75
2022/09/21 04:55:48;;;;;;;5.70;4.73;;;4.90;99.90;;;;;;5050820;28;20441;-75
2022/09/21 04:58:13;;;;;;;7.80;4.50;;;4.90;99.90;;;;;;5049581;28;20676;-75
2022/09/21 05:00:39;;;;;;;7.40;5.17;;;5.00;99.90;;;;;;5050846;28;20263;-75
2022/09/21 05:03:05;;;;;;;10.77;5.13;;;4.90;99.90;;;;;;5050853;28;20566;-75
2022/09/21 05:05:30;;;;;;;7.70;4.93;;;4.90;99.90;;;;;;5050510;28;20188;-75
2022/09/21 05:07:56;;;;;;;6.80;4.80;;;4.90;99.90;;;;;;5049148;28;20179;-75
2022/09/21 05:10:22;;;;;;;7.53;4.23;;;4.90;99.90;;;;;;5049308;28;20225;-75
2022/09/21 05:12:47;;;;;;;15.03;4.80;;;4.90;99.90;;;;;;5050447;28;20205;-75
2022/09/21 05:15:13;;;;;;;6.97;4.47;;;4.90;99.90;;;;;;5050541;28;20268;-75
2022/09/21 05:17:39;;;;;;;9.00;4.80;;;4.90;99.90;;;;;;5050629;28;20226;-75
2022/09/21 05:20:06;;;;;;;6.23;4.50;;;4.90;99.90;;;;;;5050112;28;20204;-75
2022/09/21 05:22:31;;;;;;;5.80;4.17;;;4.80;99.90;;;;;;5050331;28;20442;-74
2022/09/21 05:24:57;;;;;;;6.90;4.13;;;4.80;99.90;;;;;;5049894;28;20787;-74
2022/09/21 05:27:22;;;;;;;25.63;13.20;;;4.80;99.90;;;;;;5031982;28;20220;-75
2022/09/21 05:29:48;;;;;;;17.00;10.83;;;4.80;99.90;;;;;;5049722;28;20188;-75
2022/09/21 05:32:26;;;;;;;5.93;4.40;;;4.80;99.90;;;;;;5049731;28;20811;-75
2022/09/21 05:35:02;;;;;;;7.60;4.00;;;4.90;99.90;;;;;;5049387;28;20993;-75
2022/09/21 05:37:47;;;;;;;5.97;3.77;;;4.90;99.90;;;;;;5049800;28;21212;-75
2022/09/21 05:40:13;;;;;;;6.63;4.40;;;4.90;99.90;;;;;;5049257;28;20837;-75
2022/09/21 05:42:39;;;;;;;6.37;4.70;;;4.90;99.90;;;;;;5047843;28;20445;-75
2022/09/21 05:45:07;;;;;;;27.93;15.30;;;4.90;99.90;;;;;;5047646;28;20943;-75
2022/09/21 05:48:10;;;;;;;14.93;8.70;;;4.90;99.90;;;;;;5048090;28;20410;-76
2022/09/21 05:51:02;;;;;;;8.97;6.20;;;4.90;99.90;;;;;;5048948;28;21244;-75
2022/09/21 05:54:21;;;;;;;22.07;13.17;;;5.00;99.90;;;;;;5048996;28;20448;-75
2022/09/21 05:56:59;;;;;;;28.50;15.37;;;5.00;99.90;;;;;;5026545;28;20473;-75
2022/09/21 05:59:24;;;;;;;23.13;13.40;;;5.00;99.90;;;;;;5048956;28;20484;-75
2022/09/21 06:02:20;;;;;;;14.63;9.73;;;5.40;99.90;;;;;;5048891;28;20414;-76
2022/09/21 06:04:46;;;;;;;14.33;8.00;;;6.20;99.90;;;;;;5052001;28;20176;-76
2022/09/21 06:07:12;;;;;;;16.97;8.13;;;7.00;99.90;;;;;;5047620;28;21219;-76
2022/09/21 06:09:37;;;;;;;9.83;8.00;;;7.60;99.90;;;;;;5049107;28;20430;-75
2022/09/21 06:12:03;;;;;;;10.30;6.80;;;8.10;99.90;;;;;;5048861;28;20189;-75
2022/09/21 06:14:29;;;;;;;9.53;5.93;;;8.40;99.90;;;;;;5049009;28;20610;-75
2022/09/21 06:16:55;;;;;;;19.20;7.67;;;8.70;99.90;;;;;;5047424;28;20261;-75
2022/09/21 06:19:20;;;;;;;14.80;6.27;;;8.80;99.90;;;;;;5048616;28;20242;-76
2022/09/21 06:21:46;;;;;;;12.47;6.10;;;8.70;99.90;;;;;;5048201;28;20258;-75
2022/09/21 06:24:11;;;;;;;9.10;6.10;;;8.70;99.90;;;;;;5046880;28;20630;-75
2022/09/21 06:26:37;;;;;;;9.93;5.63;;;8.60;99.90;;;;;;5047131;28;20207;-75
2022/09/21 06:29:03;;;;;;;10.90;6.10;;;8.30;99.90;;;;;;5048740;28;20257;-75
2022/09/21 06:31:29;;;;;;;8.67;5.47;;;8.20;99.90;;;;;;5048685;28;20191;-75
2022/09/21 06:33:54;;;;;;;12.67;6.60;;;8.00;99.90;;;;;;5047264;28;20439;-75
2022/09/21 06:36:20;;;;;;;11.30;7.50;;;7.80;99.90;;;;;;5048602;28;20215;-75
2022/09/21 06:38:45;;;;;;;8.73;5.50;;;7.80;99.90;;;;;;5048481;28;20211;-74
2022/09/21 06:41:11;;;;;;;11.47;5.93;;;7.60;99.90;;;;;;5048757;28;20209;-75
2022/09/21 06:43:37;;;;;;;10.10;5.30;;;7.60;99.90;;;;;;5047308;28;20202;-75
2022/09/21 06:46:03;;;;;;;10.10;5.43;;;7.60;99.90;;;;;;5048386;28;20180;-75
2022/09/21 06:48:30;;;;;;;8.50;5.80;;;7.50;99.90;;;;;;5046987;28;20677;-75
2022/09/21 06:51:00;;;;;;;11.23;6.20;;;7.60;99.90;;;;;;5048634;28;20420;-75
2022/09/21 06:53:27;;;;;;;8.70;6.80;;;7.60;99.90;;;;;;5048503;28;20447;-75
2022/09/21 06:55:52;;;;;;;15.87;8.67;;;7.60;99.90;;;;;;5047008;28;20445;-75
2022/09/21 06:58:18;;;;;;;12.47;8.07;;;7.60;99.90;;;;;;5048435;28;21182;-75
2022/09/21 07:00:44;;;;;;;13.40;7.80;;;7.70;99.90;;;;;;5048608;28;20184;-75
2022/09/21 07:03:12;;;;;;;8.47;7.00;;;7.60;99.90;;;;;;5048582;28;20196;-75
2022/09/21 07:05:38;;;;;;;12.33;6.53;;;7.60;99.90;;;;;;5048354;28;21053;-75
2022/09/21 07:08:04;;;;;;;8.60;6.10;;;7.80;99.90;;;;;;5048500;28;20420;-75
2022/09/21 07:10:30;;;;;;;11.60;5.50;;;7.80;99.90;;;;;;5048361;28;20411;-75
2022/09/21 07:13:02;;;;;;;11.70;6.13;;;7.90;99.90;;;;;;5048419;28;20533;-75
2022/09/21 07:15:29;;;;;;;9.47;5.33;;;8.00;99.90;;;;;;5046928;28;20418;-75
2022/09/21 07:17:55;;;;;;;9.33;5.30;;;7.90;99.90;;;;;;5048107;28;20517;-75
2022/09/21 07:20:21;;;;;;;8.83;5.63;;;8.00;99.90;;;;;;5048328;28;20505;-75
2022/09/21 07:22:46;;;;;;;6.23;4.70;;;8.10;99.90;;;;;;5048231;28;20204;-75
2022/09/21 07:25:13;;;;;;;7.03;5.63;;;8.10;99.90;;;;;;5046748;28;20181;-75
2022/09/21 07:27:38;;;;;;;5.83;5.00;;;8.10;99.90;;;;;;5048304;28;20189;-75
2022/09/21 07:30:05;;;;;;;10.93;4.40;;;8.20;99.90;;;;;;5048215;28;20422;-75
2022/09/21 07:32:31;;;;;;;8.37;5.00;;;8.30;99.90;;;;;;5047944;28;20289;-75
2022/09/21 07:34:57;;;;;;;8.20;4.37;;;8.40;99.90;;;;;;5049083;28;20511;-75
2022/09/21 07:37:24;;;;;;;8.33;4.87;;;8.50;99.90;;;;;;5051552;28;20188;-75
2022/09/21 07:39:51;;;;;;;7.90;4.60;;;8.60;99.90;;;;;;5051605;28;20933;-75
2022/09/21 07:42:19;;;;;;;10.20;5.00;;;8.60;99.90;;;;;;5051707;28;20442;-75
2022/09/21 07:44:48;;;;;;;8.23;5.37;;;8.80;99.90;;;;;;5051390;28;20420;-75
2022/09/21 07:47:14;;;;;;;6.23;4.20;;;8.90;99.90;;;;;;5051502;28;20466;-75
2022/09/21 07:49:41;;;;;;;4.83;4.40;;;9.00;99.90;;;;;;5050060;28;20469;-75
2022/09/21 07:52:07;;;;;;;8.93;4.90;;;9.10;99.90;;;;;;5051256;28;20550;-75
2022/09/21 07:54:34;;;;;;;6.90;4.43;;;9.20;99.90;;;;;;5049996;28;20463;-75
2022/09/21 07:59:44;;;;;;;10.10;4.33;;;9.40;99.90;;;;;;5051131;28;20565;-75
2022/09/21 08:02:10;;;;;;;7.37;4.70;;;9.60;99.90;;;;;;5051148;28;20435;-75
2022/09/21 08:04:36;;;;;;;9.17;4.63;;;9.70;99.90;;;;;;5051209;28;20908;-75
2022/09/21 08:07:02;;;;;;;7.60;5.17;;;9.80;99.90;;;;;;5049549;28;20421;-75
2022/09/21 08:09:28;;;;;;;7.03;4.23;;;10.00;99.90;;;;;;5050968;28;20506;-75
2022/09/21 08:11:53;;;;;;;7.80;4.17;;;10.10;99.90;;;;;;5050847;28;20193;-75
2022/09/21 08:14:19;;;;;;;5.60;3.90;;;10.20;99.90;;;;;;5032808;28;20192;-75
2022/09/21 08:16:48;;;;;;;9.33;4.87;;;10.30;99.90;;;;;;5050948;28;20216;-75
2022/09/21 08:19:14;;;;;;;4.20;3.80;;;10.50;99.90;;;;;;5050641;28;20217;-75
2022/09/21 08:21:40;;;;;;;5.20;3.60;;;10.60;99.90;;;;;;5049566;28;20463;-75
2022/09/21 08:24:06;;;;;;;7.63;3.47;;;10.70;99.90;;;;;;5049184;28;21035;-75
2022/09/21 08:26:32;;;;;;;8.20;3.80;;;10.80;99.90;;;;;;5050674;28;20182;-75
2022/09/21 08:28:58;;;;;;;7.70;3.13;;;11.00;99.90;;;;;;5050745;28;20202;-75
2022/09/21 08:31:24;;;;;;;3.13;2.73;;;11.10;99.90;;;;;;5050778;28;20885;-75
2022/09/21 08:33:50;;;;;;;7.20;3.03;;;11.20;99.90;;;;;;5050547;28;20214;-75
2022/09/21 08:36:17;;;;;;;5.47;3.53;;;11.40;99.90;;;;;;5050670;28;20435;-75
2022/09/21 08:38:44;;;;;;;3.40;3.00;;;11.50;99.90;;;;;;5050543;28;21036;-75
2022/09/21 08:41:28;;;;;;;3.93;2.93;;;11.60;99.90;;;;;;5050545;28;20408;-75
2022/09/21 08:44:10;;;;;;;5.00;2.93;;;11.80;99.90;;;;;;5050596;28;20540;-75
2022/09/21 08:46:36;;;;;;;16.87;4.13;;;12.00;99.90;;;;;;5050642;28;20407;-75
2022/09/21 08:49:08;;;;;;;5.97;2.70;;;12.10;99.90;;;;;;5050992;28;20933;-75
2022/09/21 08:51:41;;;;;;;7.27;3.33;;;12.20;99.90;;;;;;5052151;28;20783;-75
2022/09/21 08:54:14;;;;;;;5.70;3.57;;;12.40;99.90;;;;;;5057137;28;20434;-75
2022/09/21 08:56:39;;;;;;;3.73;3.10;;;12.60;99.90;;;;;;5058200;28;20449;-75
2022/09/21 08:59:11;;;;;;;4.30;2.70;;;12.70;99.90;;;;;;5054709;28;20473;-75
2022/09/21 09:01:53;;;;;;;4.50;2.97;;;13.10;99.90;;;;;;5049972;28;20187;-75
2022/09/21 09:04:38;;;;;;;7.77;2.70;;;13.30;99.90;;;;;;5051122;28;20435;-75
2022/09/21 09:07:50;;;;;;;5.53;2.80;;;13.60;99.90;;;;;;5051118;28;20418;-75
2022/09/21 09:10:32;;;;;;;5.10;2.63;;;14.10;99.90;;;;;;5043513;28;20449;-75
2022/09/21 09:13:19;;;;;;;3.73;2.60;;;14.30;99.90;;;;;;5050737;28;20918;-75
2022/09/21 09:16:15;;;;;;;2.80;2.30;;;14.70;99.90;;;;;;5052710;28;20429;-76
2022/09/21 09:19:06;;;;;;;6.47;2.80;;;15.10;99.90;;;;;;5060236;28;20474;-76
2022/09/21 09:21:37;;;;;;;3.70;3.40;;;15.60;99.90;;;;;;5057441;28;20406;-76
2022/09/21 09:24:12;;;;;;;3.40;2.60;;;15.60;99.90;;;;;;5052465;28;20426;-75
2022/09/21 09:26:46;;;;;;;5.33;3.20;;;15.40;99.90;;;;;;5052311;28;20891;-74
2022/09/21 09:29:12;;;;;;;6.27;2.93;;;15.50;99.90;;;;;;5050666;28;20422;-75
2022/09/21 09:31:39;;;;;;;3.60;2.67;;;15.90;99.90;;;;;;5050563;28;20444;-76
2022/09/21 09:34:16;;;;;;;4.93;2.70;;;16.40;99.90;;;;;;5050660;28;20214;-76
2022/09/21 09:36:47;;;;;;;5.50;2.90;;;16.90;99.90;;;;;;5050857;28;20466;-76
2022/09/21 09:39:15;;;;;;;4.30;2.50;;;17.50;99.90;;;;;;5050002;28;20590;-76
2022/09/21 09:41:47;;;;;;;4.43;2.23;;;17.30;99.90;;;;;;5049527;28;20455;-76
2022/09/21 09:44:37;;;;;;;9.30;3.13;;;17.60;99.90;;;;;;5049444;28;20426;-76
2022/09/21 09:47:12;;;;;;;5.97;3.80;;;17.80;99.90;;;;;;5049324;28;20416;-76
2022/09/21 09:49:53;;;;;;;5.83;2.80;;;17.60;99.90;;;;;;5049273;28;20433;-76
2022/09/21 09:52:18;;;;;;;3.63;2.83;;;17.20;99.90;;;;;;5047680;28;20444;-76
2022/09/21 09:54:44;;;;;;;12.00;3.23;;;16.60;99.90;;;;;;5049359;28;20436;-76
2022/09/21 09:57:11;;;;;;;3.87;2.97;;;16.50;99.90;;;;;;5047161;28;20280;-75
2022/09/21 09:59:43;;;;;;;6.17;3.10;;;16.20;99.90;;;;;;5048947;28;20209;-75
2022/09/21 10:02:23;;;;;;;6.10;3.50;;;16.50;99.90;;;;;;5049128;28;20575;-75
2022/09/21 10:05:07;;;;;;;3.70;2.53;;;16.50;99.90;;;;;;5048889;28;20442;-75
2022/09/21 10:07:39;;;;;;;9.77;2.60;;;16.30;99.90;;;;;;5047593;28;20435;-76
2022/09/21 10:10:33;;;;;;;5.30;2.40;;;16.10;99.90;;;;;;5049198;28;20417;-76
2022/09/21 10:13:12;;;;;;;3.63;2.70;;;15.70;99.90;;;;;;5048807;28;20528;-75
2022/09/21 10:15:42;;;;;;;4.30;2.33;;;15.60;99.90;;;;;;5048989;28;20420;-75
2022/09/21 10:18:44;;;;;;;6.17;3.10;;;15.70;99.90;;;;;;5048710;28;20429;-75
2022/09/21 10:21:23;;;;;;;3.10;1.80;;;15.60;99.90;;;;;;5048794;28;20422;-76
2022/09/21 10:24:00;;;;;;;4.90;2.10;;;15.60;99.90;;;;;;5048667;28;20432;-75
2022/09/21 10:26:49;;;;;;;5.30;2.20;;;15.60;99.90;;;;;;5049161;28;20424;-76
2022/09/21 10:29:29;;;;;;;5.17;1.67;;;15.90;99.90;;;;;;5048914;28;20432;-76
2022/09/21 10:32:06;;;;;;;2.03;1.00;;;15.90;99.90;;;;;;5048960;28;20945;-75
2022/09/21 10:34:34;;;;;;;4.90;1.30;;;16.10;99.90;;;;;;5048864;28;20435;-75
2022/09/21 10:37:02;;;;;;;3.77;0.90;;;16.30;99.90;;;;;;5047529;28;20440;-75
2022/09/21 10:39:31;;;;;;;2.50;0.70;;;16.30;99.90;;;;;;5049027;28;20475;-75
2022/09/21 10:42:11;;;;;;;1.30;0.80;;;16.20;98.60;;;;;;5049185;28;20416;-75
2022/09/21 10:44:42;;;;;;;2.23;1.20;;;16.30;97.60;;;;;;5049280;28;20500;-75
2022/09/21 10:47:29;;;;;;;3.80;1.83;;;16.20;96.70;;;;;;5047898;28;20427;-75
2022/09/21 10:49:57;;;;;;;3.73;1.13;;;16.30;98.90;;;;;;5049134;28;20424;-76
2022/09/21 10:52:40;;;;;;;1.10;0.63;;;16.70;99.90;;;;;;5049352;28;20483;-75
2022/09/21 10:55:14;;;;;;;2.50;0.70;;;17.30;96.40;;;;;;5049061;28;20474;-74
2022/09/21 10:57:42;;;;;;;3.37;1.20;;;17.20;92.80;;;;;;5049070;28;20442;-76
2022/09/21 11:00:23;;;;;;;3.33;1.20;;;17.60;93.90;;;;;;5047547;28;20475;-75
2022/09/21 11:02:49;;;;;;;2.03;0.70;;;18.30;91.60;;;;;;5048953;28;20432;-75
2022/09/21 11:05:21;;;;;;;1.20;0.77;;;18.40;90.10;;;;;;5048804;28;20429;-76
2022/09/21 11:08:09;;;;;;;1.57;0.90;;;18.30;86.10;;;;;;5049591;28;20423;-76
2022/09/21 11:10:49;;;;;;;3.70;0.70;;;18.30;90.30;;;;;;5052495;28;20756;-77
2022/09/21 11:13:21;;;;;;;2.20;0.83;;;17.80;90.70;;;;;;5052189;28;20437;-76
2022/09/21 11:16:14;;;;;;;1.53;0.90;;;17.90;90.50;;;;;;5051939;28;20514;-76
2022/09/21 11:18:54;;;;;;;3.00;0.70;;;18.10;88.80;;;;;;5050568;28;20480;-76
2022/09/21 11:21:42;;;;;;;0.83;0.60;;;19.00;90.00;;;;;;5052073;28;20782;-77
2022/09/21 11:24:52;;;;;;;5.50;1.03;;;19.50;87.30;;;;;;5052105;28;20440;-76
2022/09/21 11:27:27;;;;;;;3.00;0.60;;;19.70;82.40;;;;;;5009394;28;20463;-76
2022/09/21 11:30:14;;;;;;;1.77;0.67;;;19.40;82.40;;;;;;5045749;28;20433;-76
2022/09/21 11:32:48;;;;;;;2.23;0.53;;;18.80;86.90;;;;;;5051542;28;20451;-76
2022/09/21 11:35:25;;;;;;;2.13;0.77;;;19.20;86.60;;;;;;5051788;28;20432;-76
2022/09/21 11:38:09;;;;;;;1.10;0.60;;;19.40;81.80;;;;;;5050266;28;20439;-76
2022/09/21 11:40:40;;;;;;;1.53;0.70;;;19.80;81.10;;;;;;5050311;28;20457;-76
2022/09/21 11:43:28;;;;;;;3.53;1.30;;;19.40;77.30;;;;;;5051750;28;20438;-76
2022/09/21 11:46:31;;;;;;;1.20;0.60;;;19.70;75.90;;;;;;5052919;28;20406;-76
2022/09/21 11:49:03;;;;;;;2.13;0.87;;;19.70;76.00;;;;;;5049549;28;20487;-76
2022/09/21 11:51:46;;;;;;;0.80;0.60;;;19.40;75.00;;;;;;5051526;28;20912;-76
2022/09/21 11:54:27;;;;;;;0.80;0.50;;;19.10;75.00;;;;;;5049371;28;20442;-76
2022/09/21 11:57:20;;;;;;;2.53;0.77;;;18.40;78.80;;;;;;5051120;28;20434;-76
2022/09/21 12:00:18;;;;;;;2.57;1.00;;;17.90;81.60;;;;;;5051054;28;20970;-76
2022/09/21 12:03:22;;;;;;;2.23;1.03;;;17.40;82.40;;;;;;5051145;28;20458;-77
2022/09/21 12:06:12;;;;;;;1.33;0.80;;;17.10;85.50;;;;;;5051137;28;20501;-76
2022/09/21 12:09:05;;;;;;;2.93;1.10;;;18.00;86.20;;;;;;5049474;28;20429;-77
2022/09/21 12:11:48;;;;;;;2.70;0.90;;;17.90;85.30;;;;;;5050875;28;20464;-76
2022/09/21 12:14:32;;;;;;;2.23;0.70;;;18.40;84.90;;;;;;5050726;28;20442;-76
2022/09/21 12:17:23;;;;;;;1.40;0.60;;;19.00;82.20;;;;;;5050863;28;20539;-76
2022/09/21 12:20:01;;;;;;;1.40;0.67;;;19.30;76.40;;;;;;5048369;28;20473;-76
2022/09/21 12:22:34;;;;;;;1.83;0.70;;;19.80;76.80;;;;;;5050603;28;20444;-76
2022/09/21 12:25:22;;;;;;;1.60;0.60;;;20.10;76.70;;;;;;5050834;28;21211;-76
2022/09/21 12:27:53;;;;;;;1.13;0.53;;;20.10;74.10;;;;;;5050614;28;20534;-76
2022/09/21 12:30:21;;;;;;;2.67;0.50;;;19.80;76.40;;;;;;5050548;28;20418;-76
2022/09/21 12:32:52;;;;;;;1.30;0.70;;;19.00;75.00;;;;;;5050405;28;20806;-76
2022/09/21 12:35:38;;;;;;;2.70;0.60;;;18.60;77.80;;;;;;5050479;28;20424;-76
2022/09/21 12:38:25;;;;;;;2.10;1.20;;;18.00;79.70;;;;;;5050432;28;20501;-76
2022/09/21 12:40:54;;;;;;;2.80;0.60;;;18.40;80.30;;;;;;5050388;28;20433;-76
2022/09/21 12:43:32;;;;;;;1.67;0.60;;;18.90;77.40;;;;;;5050017;28;20433;-76
2022/09/21 12:46:11;;;;;;;0.80;0.50;;;18.50;75.60;;;;;;5048593;28;20499;-76
2022/09/21 12:48:39;;;;;;;1.00;0.70;;;18.00;77.80;;;;;;5050401;28;20470;-76
2022/09/21 12:51:24;;;;;;;1.47;0.70;;;17.80;81.40;;;;;;5050357;28;20521;-76
2022/09/21 12:53:53;;;;;;;3.10;0.90;;;17.60;78.70;;;;;;5050080;28;20460;-76
2022/09/21 12:56:36;;;;;;;4.00;0.60;;;18.10;79.70;;;;;;5049947;28;20462;-76
2022/09/21 12:59:44;;;;;;;1.93;0.80;;;18.40;77.60;;;;;;5049894;28;20516;-76
2022/09/21 13:02:32;;;;;;;1.07;0.80;;;18.10;77.00;;;;;;5050078;28;20423;-76
2022/09/21 13:05:22;;;;;;;1.90;0.70;;;18.10;75.80;;;;;;5048766;28;20442;-76
2022/09/21 13:08:13;;;;;;;1.00;0.60;;;18.60;78.20;;;;;;5049925;28;20417;-76
2022/09/21 13:10:43;;;;;;;1.20;0.87;;;19.00;76.60;;;;;;5049832;28;20446;-76
2022/09/21 13:13:30;;;;;;;1.00;0.80;;;19.30;77.40;;;;;;5047995;28;20444;-77
2022/09/21 13:15:58;;;;;;;5.03;0.80;;;19.50;77.90;;;;;;5049791;28;20408;-76
2022/09/21 13:18:36;;;;;;;1.40;0.80;;;19.70;75.00;;;;;;5032092;28;20438;-76
2022/09/21 13:21:21;;;;;;;1.53;0.67;;;19.70;74.80;;;;;;5048490;28;20985;-76
2022/09/21 13:24:03;;;;;;;7.00;0.90;;;19.70;75.00;;;;;;5048181;28;20509;-76